sensor_id;sensor_type;location;lat;lon;timestamp;P1;durP1;ratioP1;P2;durP2;ratioP2
31818;SDS011;18384;48.860;9.188;2023-07-20T00:02:00;7.12;;;1.80;;
31818;SDS011;18384;48.860;9.188;2023-07-20T00:04:28;3.92;;;1.77;;
31818;SDS011;18384;48.860;9.188;2023-07-20T00:06:54;3.60;;;1.60;;
31818;SDS011;18384;48.860;9.188;2023-07-20T00:11:50;4.60;;;1.90;;
31818;SDS011;18384;48.860;9.188;2023-07-20T00:14:17;4.80;;;2.08;;
31818;SDS011;18384;48.860;9.188;2023-07-20T00:16:44;4.78;;;1.77;;
31818;SDS011;18384;48.860;9.188;2023-07-20T00:19:21;4.97;;;1.83;;
31818;SDS011;18384;48.860;9.188;2023-07-20T00:21:52;4.35;;;1.60;;
31818;SDS011;18384;48.860;9.188;2023-07-20T00:24:19;8.85;;;2.00;;
31818;SDS011;18384;48.860;9.188;2023-07-20T00:29:11;3.83;;;1.77;;
31818;SDS011;18384;48.860;9.188;2023-07-20T00:31:38;6.37;;;2.00;;
31818;SDS011;18384;48.860;9.188;2023-07-20T00:34:04;6.35;;;2.00;;
31818;SDS011;18384;48.860;9.188;2023-07-20T00:36:31;2.87;;;1.30;;
31818;SDS011;18384;48.860;9.188;2023-07-20T00:38:57;7.47;;;1.85;;
31818;SDS011;18384;48.860;9.188;2023-07-20T00:41:23;5.90;;;1.65;;
31818;SDS011;18384;48.860;9.188;2023-07-20T00:46:16;10.25;;;1.70;;
31818;SDS011;18384;48.860;9.188;2023-07-20T00:51:08;5.43;;;1.58;;
31818;SDS011;18384;48.860;9.188;2023-07-20T00:53:34;5.57;;;1.48;;
31818;SDS011;18384;48.860;9.188;2023-07-20T00:56:00;4.20;;;1.23;;
31818;SDS011;18384;48.860;9.188;2023-07-20T00:58:26;5.62;;;1.55;;
31818;SDS011;18384;48.860;9.188;2023-07-20T01:00:53;5.85;;;1.70;;
31818;SDS011;18384;48.860;9.188;2023-07-20T01:03:19;2.62;;;1.30;;
31818;SDS011;18384;48.860;9.188;2023-07-20T01:05:51;3.70;;;1.33;;
31818;SDS011;18384;48.860;9.188;2023-07-20T01:08:35;7.93;;;1.50;;
31818;SDS011;18384;48.860;9.188;2023-07-20T01:13:59;3.05;;;1.35;;
31818;SDS011;18384;48.860;9.188;2023-07-20T01:16:26;3.42;;;1.20;;
31818;SDS011;18384;48.860;9.188;2023-07-20T01:18:53;5.60;;;1.55;;
31818;SDS011;18384;48.860;9.188;2023-07-20T01:21:24;3.92;;;1.27;;
31818;SDS011;18384;48.860;9.188;2023-07-20T01:33:54;3.75;;;1.33;;
31818;SDS011;18384;48.860;9.188;2023-07-20T01:36:23;6.68;;;1.25;;
31818;SDS011;18384;48.860;9.188;2023-07-20T01:38:52;5.53;;;1.60;;
31818;SDS011;18384;48.860;9.188;2023-07-20T01:41:18;7.05;;;1.48;;
31818;SDS011;18384;48.860;9.188;2023-07-20T01:43:44;6.10;;;1.52;;
31818;SDS011;18384;48.860;9.188;2023-07-20T01:46:11;4.97;;;1.30;;
31818;SDS011;18384;48.860;9.188;2023-07-20T01:48:37;6.70;;;1.27;;
31818;SDS011;18384;48.860;9.188;2023-07-20T01:51:04;4.07;;;2.20;;
31818;SDS011;18384;48.860;9.188;2023-07-20T01:53:30;5.45;;;1.40;;
31818;SDS011;18384;48.860;9.188;2023-07-20T01:55:56;4.40;;;1.40;;
31818;SDS011;18384;48.860;9.188;2023-07-20T01:58:22;5.65;;;1.45;;
31818;SDS011;18384;48.860;9.188;2023-07-20T02:00:49;7.32;;;1.67;;
31818;SDS011;18384;48.860;9.188;2023-07-20T02:03:15;3.90;;;1.40;;
31818;SDS011;18384;48.860;9.188;2023-07-20T02:05:42;6.45;;;1.60;;
31818;SDS011;18384;48.860;9.188;2023-07-20T02:08:08;3.50;;;1.45;;
31818;SDS011;18384;48.860;9.188;2023-07-20T02:13:02;6.20;;;1.50;;
31818;SDS011;18384;48.860;9.188;2023-07-20T02:15:28;4.37;;;1.42;;
31818;SDS011;18384;48.860;9.188;2023-07-20T02:17:54;2.87;;;1.52;;
31818;SDS011;18384;48.860;9.188;2023-07-20T02:20:20;4.47;;;1.70;;
31818;SDS011;18384;48.860;9.188;2023-07-20T02:22:46;3.15;;;1.50;;
31818;SDS011;18384;48.860;9.188;2023-07-20T02:27:39;2.72;;;1.40;;
31818;SDS011;18384;48.860;9.188;2023-07-20T02:30:05;6.50;;;1.48;;
31818;SDS011;18384;48.860;9.188;2023-07-20T02:32:33;11.00;;;1.80;;
31818;SDS011;18384;48.860;9.188;2023-07-20T02:34:59;8.65;;;1.75;;
31818;SDS011;18384;48.860;9.188;2023-07-20T02:37:26;7.57;;;1.75;;
31818;SDS011;18384;48.860;9.188;2023-07-20T02:39:52;6.57;;;1.90;;
31818;SDS011;18384;48.860;9.188;2023-07-20T02:42:18;5.47;;;2.10;;
31818;SDS011;18384;48.860;9.188;2023-07-20T02:44:44;5.75;;;1.50;;
31818;SDS011;18384;48.860;9.188;2023-07-20T02:47:10;4.62;;;1.73;;
31818;SDS011;18384;48.860;9.188;2023-07-20T02:49:37;3.08;;;1.67;;
31818;SDS011;18384;48.860;9.188;2023-07-20T02:52:03;9.27;;;2.00;;
31818;SDS011;18384;48.860;9.188;2023-07-20T02:54:30;11.48;;;2.35;;
31818;SDS011;18384;48.860;9.188;2023-07-20T02:59:22;6.57;;;1.83;;
31818;SDS011;18384;48.860;9.188;2023-07-20T03:01:48;8.15;;;1.60;;
31818;SDS011;18384;48.860;9.188;2023-07-20T03:04:14;3.75;;;1.60;;
31818;SDS011;18384;48.860;9.188;2023-07-20T03:06:41;4.43;;;1.87;;
31818;SDS011;18384;48.860;9.188;2023-07-20T03:09:07;3.75;;;1.42;;
31818;SDS011;18384;48.860;9.188;2023-07-20T03:11:34;4.62;;;1.70;;
31818;SDS011;18384;48.860;9.188;2023-07-20T03:14:00;2.42;;;1.25;;
31818;SDS011;18384;48.860;9.188;2023-07-20T03:16:26;5.35;;;2.17;;
31818;SDS011;18384;48.860;9.188;2023-07-20T03:18:53;5.43;;;1.83;;
31818;SDS011;18384;48.860;9.188;2023-07-20T03:23:45;2.85;;;1.48;;
31818;SDS011;18384;48.860;9.188;2023-07-20T03:26:11;9.38;;;1.55;;
31818;SDS011;18384;48.860;9.188;2023-07-20T03:28:37;5.25;;;1.60;;
31818;SDS011;18384;48.860;9.188;2023-07-20T03:31:04;7.28;;;1.55;;
31818;SDS011;18384;48.860;9.188;2023-07-20T03:33:30;6.40;;;1.98;;
31818;SDS011;18384;48.860;9.188;2023-07-20T03:35:57;3.62;;;1.60;;
31818;SDS011;18384;48.860;9.188;2023-07-20T03:38:24;6.97;;;1.80;;
31818;SDS011;18384;48.860;9.188;2023-07-20T03:40:57;5.62;;;2.03;;
31818;SDS011;18384;48.860;9.188;2023-07-20T03:43:26;3.83;;;1.50;;
31818;SDS011;18384;48.860;9.188;2023-07-20T03:45:53;6.07;;;1.77;;
31818;SDS011;18384;48.860;9.188;2023-07-20T03:48:22;4.68;;;1.75;;
31818;SDS011;18384;48.860;9.188;2023-07-20T03:50:50;4.07;;;1.58;;
31818;SDS011;18384;48.860;9.188;2023-07-20T03:53:18;5.72;;;1.50;;
31818;SDS011;18384;48.860;9.188;2023-07-20T03:55:45;4.97;;;1.58;;
31818;SDS011;18384;48.860;9.188;2023-07-20T03:58:14;6.12;;;1.80;;
31818;SDS011;18384;48.860;9.188;2023-07-20T04:00:44;5.75;;;2.00;;
31818;SDS011;18384;48.860;9.188;2023-07-20T04:03:18;4.12;;;1.60;;
31818;SDS011;18384;48.860;9.188;2023-07-20T04:05:44;10.05;;;2.03;;
31818;SDS011;18384;48.860;9.188;2023-07-20T04:08:11;5.30;;;1.60;;
31818;SDS011;18384;48.860;9.188;2023-07-20T04:13:04;4.25;;;1.50;;
31818;SDS011;18384;48.860;9.188;2023-07-20T04:15:30;3.45;;;1.60;;
31818;SDS011;18384;48.860;9.188;2023-07-20T04:20:23;7.07;;;1.75;;
31818;SDS011;18384;48.860;9.188;2023-07-20T04:22:49;4.82;;;1.92;;
31818;SDS011;18384;48.860;9.188;2023-07-20T04:25:17;8.00;;;1.95;;
31818;SDS011;18384;48.860;9.188;2023-07-20T04:27:44;4.55;;;1.62;;
31818;SDS011;18384;48.860;9.188;2023-07-20T04:32:37;6.18;;;1.90;;
31818;SDS011;18384;48.860;9.188;2023-07-20T04:35:09;5.40;;;1.90;;
31818;SDS011;18384;48.860;9.188;2023-07-20T04:37:35;8.60;;;2.25;;
31818;SDS011;18384;48.860;9.188;2023-07-20T04:40:01;7.32;;;2.00;;
31818;SDS011;18384;48.860;9.188;2023-07-20T04:42:28;3.65;;;1.73;;
31818;SDS011;18384;48.860;9.188;2023-07-20T04:44:54;5.70;;;2.08;;
31818;SDS011;18384;48.860;9.188;2023-07-20T04:47:20;6.95;;;1.67;;
31818;SDS011;18384;48.860;9.188;2023-07-20T04:49:46;8.18;;;1.65;;
31818;SDS011;18384;48.860;9.188;2023-07-20T04:52:13;6.70;;;1.52;;
31818;SDS011;18384;48.860;9.188;2023-07-20T04:54:39;10.20;;;1.92;;
31818;SDS011;18384;48.860;9.188;2023-07-20T04:57:11;3.17;;;1.40;;
31818;SDS011;18384;48.860;9.188;2023-07-20T04:59:38;4.65;;;1.58;;
31818;SDS011;18384;48.860;9.188;2023-07-20T05:02:04;3.75;;;1.58;;
31818;SDS011;18384;48.860;9.188;2023-07-20T05:06:56;5.12;;;1.40;;
31818;SDS011;18384;48.860;9.188;2023-07-20T05:09:22;9.45;;;2.05;;
31818;SDS011;18384;48.860;9.188;2023-07-20T05:11:48;4.03;;;1.42;;
31818;SDS011;18384;48.860;9.188;2023-07-20T05:14:14;4.20;;;1.45;;
31818;SDS011;18384;48.860;9.188;2023-07-20T05:16:41;8.27;;;1.87;;
31818;SDS011;18384;48.860;9.188;2023-07-20T05:19:07;3.60;;;1.50;;
31818;SDS011;18384;48.860;9.188;2023-07-20T05:21:33;5.50;;;1.73;;
31818;SDS011;18384;48.860;9.188;2023-07-20T05:23:59;3.37;;;1.30;;
31818;SDS011;18384;48.860;9.188;2023-07-20T05:26:25;3.45;;;1.52;;
31818;SDS011;18384;48.860;9.188;2023-07-20T05:28:51;6.20;;;1.60;;
31818;SDS011;18384;48.860;9.188;2023-07-20T05:31:17;6.53;;;1.55;;
31818;SDS011;18384;48.860;9.188;2023-07-20T05:36:09;8.65;;;1.73;;
31818;SDS011;18384;48.860;9.188;2023-07-20T05:38:35;11.38;;;2.15;;
31818;SDS011;18384;48.860;9.188;2023-07-20T05:41:02;2.83;;;1.25;;
31818;SDS011;18384;48.860;9.188;2023-07-20T05:43:28;3.92;;;1.60;;
31818;SDS011;18384;48.860;9.188;2023-07-20T05:45:55;8.10;;;1.52;;
31818;SDS011;18384;48.860;9.188;2023-07-20T05:48:21;4.72;;;2.08;;
31818;SDS011;18384;48.860;9.188;2023-07-20T05:50:49;4.40;;;1.62;;
31818;SDS011;18384;48.860;9.188;2023-07-20T05:55:41;16.48;;;1.80;;
31818;SDS011;18384;48.860;9.188;2023-07-20T05:58:07;7.45;;;1.75;;
31818;SDS011;18384;48.860;9.188;2023-07-20T06:00:33;3.50;;;1.55;;
31818;SDS011;18384;48.860;9.188;2023-07-20T06:02:59;7.87;;;1.70;;
31818;SDS011;18384;48.860;9.188;2023-07-20T06:07:51;6.30;;;1.67;;
31818;SDS011;18384;48.860;9.188;2023-07-20T06:10:19;4.47;;;1.48;;
31818;SDS011;18384;48.860;9.188;2023-07-20T06:12:45;6.50;;;1.42;;
31818;SDS011;18384;48.860;9.188;2023-07-20T06:15:24;5.22;;;2.10;;
31818;SDS011;18384;48.860;9.188;2023-07-20T06:17:53;4.43;;;1.35;;
31818;SDS011;18384;48.860;9.188;2023-07-20T06:20:21;9.95;;;1.92;;
31818;SDS011;18384;48.860;9.188;2023-07-20T06:22:48;5.90;;;1.70;;
31818;SDS011;18384;48.860;9.188;2023-07-20T06:27:40;5.80;;;1.60;;
31818;SDS011;18384;48.860;9.188;2023-07-20T06:30:07;6.25;;;1.98;;
31818;SDS011;18384;48.860;9.188;2023-07-20T06:32:33;3.35;;;1.52;;
31818;SDS011;18384;48.860;9.188;2023-07-20T06:37:25;6.97;;;1.48;;
31818;SDS011;18384;48.860;9.188;2023-07-20T06:39:51;10.02;;;1.85;;
31818;SDS011;18384;48.860;9.188;2023-07-20T06:44:43;15.90;;;1.73;;
31818;SDS011;18384;48.860;9.188;2023-07-20T06:47:10;6.05;;;1.48;;
31818;SDS011;18384;48.860;9.188;2023-07-20T06:49:37;5.47;;;1.87;;
31818;SDS011;18384;48.860;9.188;2023-07-20T06:54:30;7.20;;;1.50;;
31818;SDS011;18384;48.860;9.188;2023-07-20T06:56:56;6.53;;;1.62;;
31818;SDS011;18384;48.860;9.188;2023-07-20T07:01:49;6.68;;;1.25;;
31818;SDS011;18384;48.860;9.188;2023-07-20T07:04:15;5.40;;;1.50;;
31818;SDS011;18384;48.860;9.188;2023-07-20T07:09:08;6.30;;;1.27;;
31818;SDS011;18384;48.860;9.188;2023-07-20T07:14:00;7.70;;;1.48;;
31818;SDS011;18384;48.860;9.188;2023-07-20T07:18:52;3.42;;;1.40;;
31818;SDS011;18384;48.860;9.188;2023-07-20T07:21:18;6.75;;;1.40;;
31818;SDS011;18384;48.860;9.188;2023-07-20T07:26:11;6.25;;;1.60;;
31818;SDS011;18384;48.860;9.188;2023-07-20T07:31:06;3.35;;;1.10;;
31818;SDS011;18384;48.860;9.188;2023-07-20T07:33:32;10.85;;;1.70;;
31818;SDS011;18384;48.860;9.188;2023-07-20T07:35:58;2.55;;;1.12;;
31818;SDS011;18384;48.860;9.188;2023-07-20T07:40:50;13.07;;;1.60;;
31818;SDS011;18384;48.860;9.188;2023-07-20T07:43:16;5.97;;;1.40;;
31818;SDS011;18384;48.860;9.188;2023-07-20T07:45:42;8.70;;;1.70;;
31818;SDS011;18384;48.860;9.188;2023-07-20T07:50:37;4.60;;;1.40;;
31818;SDS011;18384;48.860;9.188;2023-07-20T07:53:05;3.30;;;1.10;;
31818;SDS011;18384;48.860;9.188;2023-07-20T07:55:32;3.17;;;1.30;;
31818;SDS011;18384;48.860;9.188;2023-07-20T08:00:25;5.82;;;1.52;;
31818;SDS011;18384;48.860;9.188;2023-07-20T08:02:51;5.00;;;1.25;;
31818;SDS011;18384;48.860;9.188;2023-07-20T08:07:43;4.50;;;1.48;;
31818;SDS011;18384;48.860;9.188;2023-07-20T08:10:11;4.40;;;1.52;;
31818;SDS011;18384;48.860;9.188;2023-07-20T08:12:37;4.53;;;2.05;;
31818;SDS011;18384;48.860;9.188;2023-07-20T08:17:30;3.47;;;1.63;;
31818;SDS011;18384;48.860;9.188;2023-07-20T08:22:22;7.50;;;1.30;;
31818;SDS011;18384;48.860;9.188;2023-07-20T08:27:14;3.30;;;1.10;;
31818;SDS011;18384;48.860;9.188;2023-07-20T08:32:06;4.65;;;1.33;;
31818;SDS011;18384;48.860;9.188;2023-07-20T08:34:32;7.93;;;1.33;;
31818;SDS011;18384;48.860;9.188;2023-07-20T08:36:59;8.43;;;1.42;;
31818;SDS011;18384;48.860;9.188;2023-07-20T08:41:51;8.02;;;1.30;;
31818;SDS011;18384;48.860;9.188;2023-07-20T08:44:17;8.57;;;1.67;;
31818;SDS011;18384;48.860;9.188;2023-07-20T08:46:44;7.78;;;1.40;;
31818;SDS011;18384;48.860;9.188;2023-07-20T08:49:11;6.68;;;1.27;;
31818;SDS011;18384;48.860;9.188;2023-07-20T08:54:04;3.62;;;1.08;;
31818;SDS011;18384;48.860;9.188;2023-07-20T08:56:31;2.28;;;0.93;;
31818;SDS011;18384;48.860;9.188;2023-07-20T08:59:00;3.95;;;1.08;;
31818;SDS011;18384;48.860;9.188;2023-07-20T09:01:27;5.72;;;1.40;;
31818;SDS011;18384;48.860;9.188;2023-07-20T09:03:55;3.20;;;1.30;;
31818;SDS011;18384;48.860;9.188;2023-07-20T09:06:22;3.10;;;1.30;;
31818;SDS011;18384;48.860;9.188;2023-07-20T09:11:14;4.97;;;1.55;;
31818;SDS011;18384;48.860;9.188;2023-07-20T09:16:06;5.87;;;1.20;;
31818;SDS011;18384;48.860;9.188;2023-07-20T09:21:03;13.00;;;1.33;;
31818;SDS011;18384;48.860;9.188;2023-07-20T09:23:35;3.30;;;1.42;;
31818;SDS011;18384;48.860;9.188;2023-07-20T09:26:14;5.80;;;1.45;;
31818;SDS011;18384;48.860;9.188;2023-07-20T09:28:47;2.97;;;1.33;;
31818;SDS011;18384;48.860;9.188;2023-07-20T09:31:16;3.08;;;1.20;;
31818;SDS011;18384;48.860;9.188;2023-07-20T09:33:47;6.37;;;1.08;;
31818;SDS011;18384;48.860;9.188;2023-07-20T09:36:14;3.20;;;1.20;;
31818;SDS011;18384;48.860;9.188;2023-07-20T09:38:43;12.52;;;1.37;;
31818;SDS011;18384;48.860;9.188;2023-07-20T09:41:13;3.65;;;0.95;;
31818;SDS011;18384;48.860;9.188;2023-07-20T09:43:43;3.45;;;0.98;;
31818;SDS011;18384;48.860;9.188;2023-07-20T09:46:11;4.75;;;1.02;;
31818;SDS011;18384;48.860;9.188;2023-07-20T09:51:03;3.80;;;1.00;;
31818;SDS011;18384;48.860;9.188;2023-07-20T09:53:32;7.82;;;0.93;;
31818;SDS011;18384;48.860;9.188;2023-07-20T09:55:59;6.15;;;1.62;;
31818;SDS011;18384;48.860;9.188;2023-07-20T09:58:26;4.47;;;0.85;;
31818;SDS011;18384;48.860;9.188;2023-07-20T10:00:54;3.15;;;1.02;;
31818;SDS011;18384;48.860;9.188;2023-07-20T10:03:23;5.53;;;1.20;;
31818;SDS011;18384;48.860;9.188;2023-07-20T10:05:56;3.00;;;0.80;;
31818;SDS011;18384;48.860;9.188;2023-07-20T10:08:28;8.98;;;0.80;;
31818;SDS011;18384;48.860;9.188;2023-07-20T10:10:57;2.15;;;0.98;;
31818;SDS011;18384;48.860;9.188;2023-07-20T10:13:28;10.60;;;1.00;;
31818;SDS011;18384;48.860;9.188;2023-07-20T10:16:02;4.78;;;1.40;;
31818;SDS011;18384;48.860;9.188;2023-07-20T10:18:40;4.07;;;0.73;;
31818;SDS011;18384;48.860;9.188;2023-07-20T10:21:31;3.80;;;1.15;;
31818;SDS011;18384;48.860;9.188;2023-07-20T10:24:06;4.97;;;1.20;;
31818;SDS011;18384;48.860;9.188;2023-07-20T10:26:33;5.00;;;1.00;;
31818;SDS011;18384;48.860;9.188;2023-07-20T10:29:00;5.87;;;0.85;;
31818;SDS011;18384;48.860;9.188;2023-07-20T10:31:26;1.98;;;0.88;;
31818;SDS011;18384;48.860;9.188;2023-07-20T10:33:55;4.22;;;1.10;;
31818;SDS011;18384;48.860;9.188;2023-07-20T10:36:26;7.07;;;1.30;;
31818;SDS011;18384;48.860;9.188;2023-07-20T10:38:53;4.18;;;0.85;;
31818;SDS011;18384;48.860;9.188;2023-07-20T10:41:28;2.90;;;0.88;;
31818;SDS011;18384;48.860;9.188;2023-07-20T10:44:08;3.47;;;0.80;;
31818;SDS011;18384;48.860;9.188;2023-07-20T10:46:44;3.70;;;0.82;;
31818;SDS011;18384;48.860;9.188;2023-07-20T10:49:12;2.08;;;0.82;;
31818;SDS011;18384;48.860;9.188;2023-07-20T10:51:40;2.42;;;0.95;;
31818;SDS011;18384;48.860;9.188;2023-07-20T10:57:44;4.90;;;0.70;;
31818;SDS011;18384;48.860;9.188;2023-07-20T11:01:00;2.70;;;0.82;;
31818;SDS011;18384;48.860;9.188;2023-07-20T11:03:37;3.12;;;0.80;;
31818;SDS011;18384;48.860;9.188;2023-07-20T11:21:52;2.87;;;0.70;;
31818;SDS011;18384;48.860;9.188;2023-07-20T11:24:21;5.60;;;0.95;;
31818;SDS011;18384;48.860;9.188;2023-07-20T11:26:48;7.45;;;0.80;;
31818;SDS011;18384;48.860;9.188;2023-07-20T11:29:22;6.07;;;0.77;;
31818;SDS011;18384;48.860;9.188;2023-07-20T11:31:50;3.33;;;0.80;;
31818;SDS011;18384;48.860;9.188;2023-07-20T11:36:45;3.85;;;1.15;;
31818;SDS011;18384;48.860;9.188;2023-07-20T11:39:14;4.05;;;0.60;;
31818;SDS011;18384;48.860;9.188;2023-07-20T11:41:51;2.12;;;0.80;;
31818;SDS011;18384;48.860;9.188;2023-07-20T11:44:22;1.60;;;0.73;;
31818;SDS011;18384;48.860;9.188;2023-07-20T11:46:59;3.35;;;1.50;;
31818;SDS011;18384;48.860;9.188;2023-07-20T11:49:39;3.78;;;1.08;;
31818;SDS011;18384;48.860;9.188;2023-07-20T11:52:10;7.03;;;1.12;;
31818;SDS011;18384;48.860;9.188;2023-07-20T11:54:40;3.00;;;0.85;;
31818;SDS011;18384;48.860;9.188;2023-07-20T11:57:07;4.18;;;0.82;;
31818;SDS011;18384;48.860;9.188;2023-07-20T11:59:57;5.72;;;1.00;;
31818;SDS011;18384;48.860;9.188;2023-07-20T12:02:37;2.95;;;0.80;;
31818;SDS011;18384;48.860;9.188;2023-07-20T12:05:06;4.32;;;1.00;;
31818;SDS011;18384;48.860;9.188;2023-07-20T12:07:34;2.78;;;1.00;;
31818;SDS011;18384;48.860;9.188;2023-07-20T12:10:08;4.05;;;1.00;;
31818;SDS011;18384;48.860;9.188;2023-07-20T12:12:38;2.87;;;0.80;;
31818;SDS011;18384;48.860;9.188;2023-07-20T12:15:22;5.68;;;1.80;;
31818;SDS011;18384;48.860;9.188;2023-07-20T12:17:55;5.22;;;0.98;;
31818;SDS011;18384;48.860;9.188;2023-07-20T12:20:28;2.65;;;0.75;;
31818;SDS011;18384;48.860;9.188;2023-07-20T12:23:04;4.18;;;1.15;;
31818;SDS011;18384;48.860;9.188;2023-07-20T12:25:38;5.32;;;0.80;;
31818;SDS011;18384;48.860;9.188;2023-07-20T12:28:13;2.33;;;0.85;;
31818;SDS011;18384;48.860;9.188;2023-07-20T12:30:42;4.68;;;0.90;;
31818;SDS011;18384;48.860;9.188;2023-07-20T12:33:09;11.32;;;3.42;;
31818;SDS011;18384;48.860;9.188;2023-07-20T12:35:37;4.25;;;1.65;;
31818;SDS011;18384;48.860;9.188;2023-07-20T12:38:03;2.78;;;0.80;;
31818;SDS011;18384;48.860;9.188;2023-07-20T12:40:30;1.45;;;0.80;;
31818;SDS011;18384;48.860;9.188;2023-07-20T12:45:22;4.53;;;0.90;;
31818;SDS011;18384;48.860;9.188;2023-07-20T12:47:48;5.72;;;0.85;;
31818;SDS011;18384;48.860;9.188;2023-07-20T12:52:41;5.18;;;1.10;;
31818;SDS011;18384;48.860;9.188;2023-07-20T12:55:07;3.55;;;0.60;;
31818;SDS011;18384;48.860;9.188;2023-07-20T12:57:35;2.87;;;0.90;;
31818;SDS011;18384;48.860;9.188;2023-07-20T13:00:02;3.37;;;1.00;;
31818;SDS011;18384;48.860;9.188;2023-07-20T13:02:33;2.78;;;0.90;;
31818;SDS011;18384;48.860;9.188;2023-07-20T13:05:00;3.60;;;1.08;;
31818;SDS011;18384;48.860;9.188;2023-07-20T13:09:59;2.15;;;0.80;;
31818;SDS011;18384;48.860;9.188;2023-07-20T13:12:27;5.80;;;1.08;;
31818;SDS011;18384;48.860;9.188;2023-07-20T13:14:55;5.82;;;0.82;;
31818;SDS011;18384;48.860;9.188;2023-07-20T13:17:24;4.18;;;1.08;;
31818;SDS011;18384;48.860;9.188;2023-07-20T13:19:50;4.72;;;1.25;;
31818;SDS011;18384;48.860;9.188;2023-07-20T13:24:44;5.60;;;1.87;;
31818;SDS011;18384;48.860;9.188;2023-07-20T13:27:16;1.48;;;0.65;;
31818;SDS011;18384;48.860;9.188;2023-07-20T13:29:43;3.12;;;1.02;;
31818;SDS011;18384;48.860;9.188;2023-07-20T13:32:10;1.50;;;0.70;;
31818;SDS011;18384;48.860;9.188;2023-07-20T13:34:38;4.25;;;1.00;;
31818;SDS011;18384;48.860;9.188;2023-07-20T13:39:31;2.50;;;0.90;;
31818;SDS011;18384;48.860;9.188;2023-07-20T13:44:23;4.12;;;0.90;;
31818;SDS011;18384;48.860;9.188;2023-07-20T13:49:15;2.22;;;1.02;;
31818;SDS011;18384;48.860;9.188;2023-07-20T13:51:42;3.33;;;0.88;;
31818;SDS011;18384;48.860;9.188;2023-07-20T13:54:08;3.03;;;0.93;;
31818;SDS011;18384;48.860;9.188;2023-07-20T13:56:35;2.87;;;0.65;;
31818;SDS011;18384;48.860;9.188;2023-07-20T13:59:01;3.55;;;0.98;;
31818;SDS011;18384;48.860;9.188;2023-07-20T14:03:55;3.53;;;0.75;;
31818;SDS011;18384;48.860;9.188;2023-07-20T14:06:21;1.40;;;0.70;;
31818;SDS011;18384;48.860;9.188;2023-07-20T14:11:14;4.32;;;0.90;;
31818;SDS011;18384;48.860;9.188;2023-07-20T14:13:41;4.75;;;1.10;;
31818;SDS011;18384;48.860;9.188;2023-07-20T14:18:33;4.00;;;0.90;;
31818;SDS011;18384;48.860;9.188;2023-07-20T14:20:59;1.95;;;0.68;;
31818;SDS011;18384;48.860;9.188;2023-07-20T14:23:28;3.17;;;0.90;;
31818;SDS011;18384;48.860;9.188;2023-07-20T14:25:54;2.47;;;0.70;;
31818;SDS011;18384;48.860;9.188;2023-07-20T14:30:47;3.42;;;0.95;;
31818;SDS011;18384;48.860;9.188;2023-07-20T14:35:39;5.03;;;0.85;;
31818;SDS011;18384;48.860;9.188;2023-07-20T14:40:31;4.00;;;0.90;;
31818;SDS011;18384;48.860;9.188;2023-07-20T14:42:57;2.30;;;0.60;;
31818;SDS011;18384;48.860;9.188;2023-07-20T14:45:27;3.33;;;0.80;;
31818;SDS011;18384;48.860;9.188;2023-07-20T14:47:53;4.05;;;0.80;;
31818;SDS011;18384;48.860;9.188;2023-07-20T14:52:45;1.95;;;0.90;;
31818;SDS011;18384;48.860;9.188;2023-07-20T14:55:12;2.47;;;0.98;;
31818;SDS011;18384;48.860;9.188;2023-07-20T14:57:38;1.70;;;0.80;;
31818;SDS011;18384;48.860;9.188;2023-07-20T15:02:36;1.65;;;0.70;;
31818;SDS011;18384;48.860;9.188;2023-07-20T15:05:02;2.30;;;0.70;;
31818;SDS011;18384;48.860;9.188;2023-07-20T15:07:30;3.08;;;1.00;;
31818;SDS011;18384;48.860;9.188;2023-07-20T15:12:22;3.28;;;0.80;;
31818;SDS011;18384;48.860;9.188;2023-07-20T15:17:35;2.25;;;0.90;;
31818;SDS011;18384;48.860;9.188;2023-07-20T15:20:04;2.03;;;0.80;;
31818;SDS011;18384;48.860;9.188;2023-07-20T15:22:34;3.60;;;1.00;;
31818;SDS011;18384;48.860;9.188;2023-07-20T15:25:04;2.58;;;1.10;;
31818;SDS011;18384;48.860;9.188;2023-07-20T15:27:32;4.43;;;0.82;;
31818;SDS011;18384;48.860;9.188;2023-07-20T15:29:58;4.15;;;0.88;;
31818;SDS011;18384;48.860;9.188;2023-07-20T15:34:51;2.97;;;0.88;;
31818;SDS011;18384;48.860;9.188;2023-07-20T15:37:17;2.58;;;0.80;;
31818;SDS011;18384;48.860;9.188;2023-07-20T15:42:09;2.25;;;0.98;;
31818;SDS011;18384;48.860;9.188;2023-07-20T15:47:01;1.83;;;0.88;;
31818;SDS011;18384;48.860;9.188;2023-07-20T15:49:27;3.95;;;0.95;;
31818;SDS011;18384;48.860;9.188;2023-07-20T15:54:20;4.35;;;0.73;;
31818;SDS011;18384;48.860;9.188;2023-07-20T15:56:46;2.70;;;1.08;;
31818;SDS011;18384;48.860;9.188;2023-07-20T15:59:13;2.92;;;1.02;;
31818;SDS011;18384;48.860;9.188;2023-07-20T16:01:41;2.12;;;0.75;;
31818;SDS011;18384;48.860;9.188;2023-07-20T16:04:09;1.58;;;0.80;;
31818;SDS011;18384;48.860;9.188;2023-07-20T16:06:40;2.20;;;0.98;;
31818;SDS011;18384;48.860;9.188;2023-07-20T16:09:07;1.33;;;0.60;;
31818;SDS011;18384;48.860;9.188;2023-07-20T16:11:33;2.08;;;0.80;;
31818;SDS011;18384;48.860;9.188;2023-07-20T16:14:00;2.33;;;0.90;;
31818;SDS011;18384;48.860;9.188;2023-07-20T16:16:30;3.42;;;1.08;;
31818;SDS011;18384;48.860;9.188;2023-07-20T16:18:56;2.87;;;1.08;;
31818;SDS011;18384;48.860;9.188;2023-07-20T16:23:49;1.12;;;0.65;;
31818;SDS011;18384;48.860;9.188;2023-07-20T16:26:15;3.90;;;0.75;;
31818;SDS011;18384;48.860;9.188;2023-07-20T16:28:42;11.23;;;1.10;;
31818;SDS011;18384;48.860;9.188;2023-07-20T16:31:14;4.53;;;0.90;;
31818;SDS011;18384;48.860;9.188;2023-07-20T16:33:42;2.72;;;0.88;;
31818;SDS011;18384;48.860;9.188;2023-07-20T16:36:12;2.22;;;0.80;;
31818;SDS011;18384;48.860;9.188;2023-07-20T16:38:40;3.05;;;0.73;;
31818;SDS011;18384;48.860;9.188;2023-07-20T16:41:07;4.18;;;0.98;;
31818;SDS011;18384;48.860;9.188;2023-07-20T16:43:35;2.42;;;0.93;;
31818;SDS011;18384;48.860;9.188;2023-07-20T16:46:02;30.60;;;1.33;;
31818;SDS011;18384;48.860;9.188;2023-07-20T16:48:35;4.35;;;0.77;;
31818;SDS011;18384;48.860;9.188;2023-07-20T16:51:02;4.35;;;0.93;;
31818;SDS011;18384;48.860;9.188;2023-07-20T16:53:29;2.15;;;0.80;;
31818;SDS011;18384;48.860;9.188;2023-07-20T16:55:55;7.12;;;1.05;;
31818;SDS011;18384;48.860;9.188;2023-07-20T16:58:23;4.65;;;0.75;;
31818;SDS011;18384;48.860;9.188;2023-07-20T17:00:52;6.82;;;1.00;;
31818;SDS011;18384;48.860;9.188;2023-07-20T17:03:31;2.10;;;0.90;;
31818;SDS011;18384;48.860;9.188;2023-07-20T17:05:59;3.70;;;1.08;;
31818;SDS011;18384;48.860;9.188;2023-07-20T17:08:29;7.35;;;1.12;;
31818;SDS011;18384;48.860;9.188;2023-07-20T17:10:56;2.22;;;0.98;;
31818;SDS011;18384;48.860;9.188;2023-07-20T17:15:48;1.40;;;0.60;;
31818;SDS011;18384;48.860;9.188;2023-07-20T17:18:15;3.30;;;1.60;;
31818;SDS011;18384;48.860;9.188;2023-07-20T17:20:43;1.75;;;0.70;;
31818;SDS011;18384;48.860;9.188;2023-07-20T17:23:10;3.65;;;1.12;;
31818;SDS011;18384;48.860;9.188;2023-07-20T17:25:41;2.53;;;0.75;;
31818;SDS011;18384;48.860;9.188;2023-07-20T17:28:08;3.95;;;0.80;;
31818;SDS011;18384;48.860;9.188;2023-07-20T17:30:35;2.50;;;0.80;;
31818;SDS011;18384;48.860;9.188;2023-07-20T17:33:01;16.95;;;1.00;;
31818;SDS011;18384;48.860;9.188;2023-07-20T17:37:54;2.30;;;0.88;;
31818;SDS011;18384;48.860;9.188;2023-07-20T17:42:48;3.72;;;0.60;;
31818;SDS011;18384;48.860;9.188;2023-07-20T17:45:15;1.85;;;0.95;;
31818;SDS011;18384;48.860;9.188;2023-07-20T17:47:41;3.90;;;0.75;;
31818;SDS011;18384;48.860;9.188;2023-07-20T17:52:38;3.80;;;0.80;;
31818;SDS011;18384;48.860;9.188;2023-07-20T17:55:04;4.10;;;0.82;;
31818;SDS011;18384;48.860;9.188;2023-07-20T17:57:31;3.37;;;1.00;;
31818;SDS011;18384;48.860;9.188;2023-07-20T18:02:23;4.05;;;1.00;;
31818;SDS011;18384;48.860;9.188;2023-07-20T18:04:51;3.20;;;1.00;;
31818;SDS011;18384;48.860;9.188;2023-07-20T18:07:17;3.60;;;0.88;;
31818;SDS011;18384;48.860;9.188;2023-07-20T18:09:43;7.20;;;1.00;;